Portada
METAR-TAF:

METAR-TAF

Aeroports :

Imphal, Índia

latitud: 24-45-36N, longitud: 93-53-48E, altitud: 774 m

Observació

L'informe es va fer fa 8 hores i 15 minuts, a les 12:00 UTC
Vent 3 kt del Sud/Sud-Oest
Temperatura 15°C
Humitat 88%
Pressió 1014 hPa
Visibilitat: 5000 m
Núvols disperses a una alçada de 1800 ft
Cel ennuvolat a una alçada de 10000 ft
boirina

METAR: VEIM 261200Z 20003KT 5000 BR SCT018 BKN100 15/13 Q1014 NOSIG

Hora: 01:45 (20:15 UTC)

Pronòstic

L'informe es va fer fa 3 hores i 15 minuts, a les 17:00 UTC
Pronòstic vàlid del 26 a les 18 UTC al 27 a les 03 UTC
Vent kt del Nord
Visibilitat: 2500 m
Escasses núvols a una alçada de 800 ft
Núvols disperses a una alçada de 1800 ft
Cel ennuvolat a una alçada de 9000 ft
boirina
Evolucionant progressivament
l' 26 a les 20 UTC al 26 a les 22 UTC
Visibilitat: 1400 m
pluja, boirina

TAF: VEIM 261700Z 2618/2703 00000KT 2500 BR FEW008 SCT018 BKN090 BECMG 2620/2622 1400 -RA BR

Observacions i pronòstics meteorològics de més de 4000 aeroports (METAR i TAF).

Les estacions disponibles són els punts grocs i vermells al mapa.

Posi el ratolí al punt desitjat per veure el nom de l'estació.

Feu clic per veure les observacions i els pronòstics meteorològics.

Per canviar el mapa: feu clic els botons verds amb una creu de color negre per apropar; al botó verd amb un guió per allunyar la imatge; o en les fletxes verdes per a mapes adjacents.


METAR-TAF: